createdAt,value
2022-12-23T00:02:00.893Z,14.97
2022-12-23T00:04:03.387Z,15.32
2022-12-23T00:06:09.752Z,16.35
2022-12-23T00:08:14.792Z,15.98
2022-12-23T00:10:17.359Z,17.45
2022-12-23T00:12:38.496Z,17.70
2022-12-23T00:14:59.451Z,16.48
2022-12-23T00:17:01.944Z,17.45
2022-12-23T00:19:04.996Z,18.73
2022-12-23T00:21:09.907Z,18.42
2022-12-23T00:23:15.044Z,18.05
2022-12-23T00:25:17.737Z,19.83
2022-12-23T00:27:20.387Z,19.30
2022-12-23T00:29:23.173Z,18.08
2022-12-23T00:31:29.978Z,19.80
2022-12-23T00:33:37.187Z,20.23
2022-12-23T00:35:39.707Z,19.05
2022-12-23T00:37:42.267Z,20.33
2022-12-23T00:40:07.173Z,17.70
2022-12-23T00:42:30.541Z,18.95
2022-12-23T00:44:33.244Z,18.33
2022-12-23T00:46:35.804Z,18.38
2022-12-23T00:48:57.147Z,20.85
2022-12-23T00:51:02.038Z,19.50
2022-12-23T00:53:04.894Z,19.60
2022-12-23T00:55:10.452Z,19.83
2022-12-23T00:57:17.357Z,19.67
2022-12-23T00:59:20.153Z,20.75
2022-12-23T01:01:41.611Z,21.30
2022-12-23T01:04:04.817Z,19.65
2022-12-23T01:06:07.659Z,21.10
2022-12-23T01:08:12.192Z,20.73
2022-12-23T01:10:20.299Z,19.40
2022-12-23T01:12:23.166Z,22.10
2022-12-23T01:14:29.033Z,19.88
2022-12-23T01:16:31.816Z,20.27
2022-12-23T01:18:34.829Z,20.02
2022-12-23T01:20:38.203Z,19.95
2022-12-23T01:22:46.650Z,18.08
2022-12-23T01:24:49.241Z,18.63
2022-12-23T01:26:56.674Z,20.63
2022-12-23T01:29:01.719Z,18.95
2022-12-23T01:31:05.924Z,20.80
2022-12-23T01:33:10.754Z,19.45
2022-12-23T01:35:13.188Z,20.17
2022-12-23T01:37:15.749Z,17.52
2022-12-23T01:39:18.652Z,19.20
2022-12-23T01:41:42.681Z,18.52
2022-12-23T01:43:49.604Z,20.58
2022-12-23T01:45:52.472Z,19.63
2022-12-23T01:48:01.603Z,21.45
2022-12-23T01:50:11.205Z,21.25
2022-12-23T01:52:14.177Z,19.75
2022-12-23T01:54:16.764Z,20.35
2022-12-23T01:56:24.785Z,21.02
2022-12-23T01:58:32.064Z,19.80
2022-12-23T02:00:58.117Z,20.73
2022-12-23T02:03:19.423Z,21.52
2022-12-23T02:05:23.086Z,20.88
2022-12-23T02:07:54.361Z,18.73
2022-12-23T02:09:57.021Z,18.48
2022-12-23T02:12:25.892Z,16.60
2022-12-23T02:15:02.486Z,18.17
2022-12-23T02:17:16.373Z,18.58
2022-12-23T02:19:36.864Z,17.77
2022-12-23T02:21:57.933Z,17.50
2022-12-23T02:24:36.209Z,18.30
2022-12-23T02:27:09.799Z,17.90
2022-12-23T02:29:42.588Z,19.17
2022-12-23T02:32:00.469Z,17.88
2022-12-23T02:34:11.234Z,17.83
2022-12-23T02:36:30.189Z,18.73
2022-12-23T02:38:39.153Z,18.98
2022-12-23T02:40:47.101Z,16.92
2022-12-23T02:42:59.556Z,18.00
2022-12-23T02:45:07.879Z,19.15
2022-12-23T02:47:19.384Z,18.13
2022-12-23T02:49:27.875Z,17.90
2022-12-23T02:51:36.995Z,18.25
2022-12-23T02:53:45.971Z,18.77
2022-12-23T02:55:50.545Z,18.85
2022-12-23T02:57:55.238Z,20.98
2022-12-23T03:00:01.839Z,19.25
2022-12-23T03:02:04.394Z,17.73
2022-12-23T03:04:09.557Z,18.13
2022-12-23T03:06:20.400Z,18.88
2022-12-23T03:08:37.424Z,17.85
2022-12-23T03:10:52.373Z,19.52
2022-12-23T03:13:04.162Z,19.38
2022-12-23T03:15:17.780Z,17.00
2022-12-23T03:17:34.949Z,17.73
2022-12-23T03:19:47.376Z,17.88
2022-12-23T03:22:00.256Z,17.48
2022-12-23T03:24:15.498Z,17.48
2022-12-23T03:26:22.125Z,19.48
2022-12-23T03:28:30.210Z,17.10
2022-12-23T03:30:34.698Z,17.35
2022-12-23T03:32:44.046Z,16.20
2022-12-23T03:34:53.793Z,17.08
2022-12-23T03:36:58.932Z,15.57
2022-12-23T03:39:11.190Z,14.70
2022-12-23T03:41:19.148Z,14.55
2022-12-23T03:43:25.666Z,15.55
2022-12-23T03:45:39.432Z,15.25
2022-12-23T03:47:46.785Z,15.95
2022-12-23T03:49:55.991Z,14.80
2022-12-23T03:52:03.913Z,15.63
2022-12-23T03:54:16.852Z,15.80
2022-12-23T03:56:25.169Z,15.45
2022-12-23T03:58:35.397Z,15.65
2022-12-23T04:00:48.194Z,16.58
2022-12-23T04:02:59.130Z,16.27
2022-12-23T04:05:16.586Z,15.13
2022-12-23T04:07:34.289Z,17.38
2022-12-23T04:09:38.129Z,17.67
2022-12-23T04:11:41.014Z,19.25
2022-12-23T04:13:43.836Z,18.88
2022-12-23T04:15:46.673Z,17.98
2022-12-23T04:17:50.400Z,18.27
2022-12-23T04:19:53.945Z,17.20
2022-12-23T04:21:59.149Z,18.97
2022-12-23T04:24:01.592Z,20.48
2022-12-23T04:26:04.446Z,18.85
2022-12-23T04:28:09.555Z,19.63
2022-12-23T04:30:13.960Z,20.48
2022-12-23T04:32:16.413Z,20.27
2022-12-23T04:34:18.925Z,18.60
2022-12-23T04:36:23.633Z,19.40
2022-12-23T04:38:28.794Z,18.63
2022-12-23T04:40:31.299Z,19.75
2022-12-23T04:42:34.236Z,19.13
2022-12-23T04:44:37.437Z,18.70
2022-12-23T04:46:39.963Z,18.77
2022-12-23T04:48:42.631Z,17.48
2022-12-23T04:50:45.215Z,20.05
2022-12-23T04:52:47.706Z,18.33
2022-12-23T04:54:52.783Z,18.02
2022-12-23T04:56:55.380Z,17.30
2022-12-23T04:59:02.489Z,18.77
2022-12-23T05:01:07.441Z,18.13
2022-12-23T05:03:10.221Z,17.33
2022-12-23T05:05:12.897Z,19.08
2022-12-23T05:07:15.367Z,19.58
2022-12-23T05:09:19.965Z,21.90
2022-12-23T05:11:25.101Z,26.00
2022-12-23T05:13:27.486Z,24.10
2022-12-23T05:15:34.281Z,21.85
2022-12-23T05:17:36.744Z,24.02
2022-12-23T05:19:39.441Z,20.00
2022-12-23T05:21:41.967Z,20.60
2022-12-23T05:23:44.534Z,21.85
2022-12-23T05:25:54.132Z,22.88
2022-12-23T05:27:59.226Z,20.00
2022-12-23T05:30:01.689Z,22.55
2022-12-23T05:32:04.943Z,23.48
2022-12-23T05:34:07.757Z,24.35
2022-12-23T05:36:11.754Z,25.33
2022-12-23T05:38:14.345Z,26.85
2022-12-23T05:40:24.118Z,27.80
2022-12-23T05:42:28.464Z,27.05
2022-12-23T05:44:33.780Z,27.42
2022-12-23T05:46:37.139Z,28.50
2022-12-23T05:48:40.771Z,24.35
2022-12-23T05:50:49.908Z,25.75
2022-12-23T05:52:52.458Z,20.55
2022-12-23T05:54:54.970Z,21.95
2022-12-23T05:56:59.470Z,24.80
2022-12-23T05:59:03.021Z,20.33
2022-12-23T06:01:11.447Z,18.92
2022-12-23T06:03:14.569Z,23.08
2022-12-23T06:05:17.182Z,19.60
2022-12-23T06:07:19.776Z,17.88
2022-12-23T06:09:22.528Z,19.70
2022-12-23T06:11:25.097Z,20.35
2022-12-23T06:13:28.770Z,17.38
2022-12-23T06:15:31.161Z,17.05
2022-12-23T06:17:36.642Z,20.40
2022-12-23T06:19:39.209Z,15.70
2022-12-23T06:21:43.710Z,17.38
2022-12-23T06:23:47.437Z,21.52
2022-12-23T06:25:49.919Z,19.17
2022-12-23T06:27:52.479Z,18.95
2022-12-23T06:29:56.368Z,18.85
2022-12-23T06:32:01.503Z,20.55
2022-12-23T06:34:06.550Z,22.20
2022-12-23T06:36:09.769Z,24.77
2022-12-23T06:38:12.769Z,23.25
2022-12-23T06:40:17.999Z,23.13
2022-12-23T06:42:20.859Z,26.10
2022-12-23T06:44:23.308Z,23.23
2022-12-23T06:46:28.329Z,29.92
2022-12-23T06:48:40.701Z,23.77
2022-12-23T06:50:46.517Z,22.77
2022-12-23T06:52:50.765Z,26.52
2022-12-23T06:54:53.505Z,28.00
2022-12-23T06:56:59.777Z,22.17
2022-12-23T06:59:02.083Z,23.88
2022-12-23T07:01:06.654Z,21.10
2022-12-23T07:03:12.770Z,23.85
2022-12-23T07:05:19.657Z,20.00
2022-12-23T07:07:24.752Z,18.90
2022-12-23T07:09:27.155Z,20.33
2022-12-23T07:11:30.111Z,22.35
2022-12-23T07:13:33.510Z,15.98
2022-12-23T07:15:36.951Z,18.50
2022-12-23T07:17:39.467Z,18.60
2022-12-23T07:19:42.037Z,17.05
2022-12-23T07:21:44.810Z,16.92
2022-12-23T07:23:49.861Z,18.73
2022-12-23T07:25:52.373Z,21.08
2022-12-23T07:27:55.489Z,17.80
2022-12-23T07:30:01.088Z,16.35
2022-12-23T07:32:04.158Z,19.00
2022-12-23T07:34:06.698Z,16.35
2022-12-23T07:36:09.890Z,18.52
2022-12-23T07:38:12.372Z,15.82
2022-12-23T07:40:18.004Z,17.98
2022-12-23T07:44:45.544Z,15.35
2022-12-23T07:46:48.255Z,16.17
2022-12-23T07:51:00.418Z,15.05
2022-12-23T07:53:02.952Z,15.75
2022-12-23T07:55:08.660Z,14.77
2022-12-23T07:57:15.121Z,16.42
2022-12-23T07:59:17.751Z,16.75
2022-12-23T08:01:26.353Z,14.02
2022-12-23T08:03:29.301Z,15.50
2022-12-23T08:05:32.088Z,16.58
2022-12-23T08:07:37.118Z,17.95
2022-12-23T08:09:39.635Z,16.75
2022-12-23T08:11:42.227Z,16.90
2022-12-23T08:13:48.539Z,16.17
2022-12-23T08:15:55.150Z,16.52
2022-12-23T08:17:57.714Z,16.45
2022-12-23T08:20:01.047Z,16.77
2022-12-23T08:22:03.700Z,18.13
2022-12-23T08:24:06.888Z,16.90
2022-12-23T08:26:11.140Z,17.60
2022-12-23T08:28:13.827Z,16.52
2022-12-23T08:30:21.255Z,15.68
2022-12-23T08:32:27.208Z,15.30
2022-12-23T08:34:29.721Z,13.70
2022-12-23T08:36:36.105Z,15.05
2022-12-23T08:38:38.819Z,16.02
2022-12-23T08:40:41.436Z,14.77
2022-12-23T08:42:45.201Z,15.27
2022-12-23T08:44:47.743Z,15.38
2022-12-23T08:46:53.461Z,14.70
2022-12-23T08:48:58.326Z,15.82
2022-12-23T08:51:05.128Z,15.70
2022-12-23T08:53:07.739Z,14.68
2022-12-23T08:55:10.799Z,15.43
2022-12-23T08:57:13.328Z,13.05
2022-12-23T08:59:19.671Z,14.93
2022-12-23T09:01:30.851Z,14.98
2022-12-23T09:03:37.408Z,15.57
2022-12-23T09:05:48.814Z,15.50
2022-12-23T09:07:51.357Z,14.32
2022-12-23T09:09:53.715Z,16.73
2022-12-23T09:14:01.445Z,15.80
2022-12-23T09:16:04.632Z,15.10
2022-12-23T09:18:18.511Z,16.45
2022-12-23T09:20:23.663Z,15.55
2022-12-23T09:22:26.122Z,14.75
2022-12-23T09:24:29.376Z,15.90
2022-12-23T09:26:33.129Z,18.08
2022-12-23T09:28:35.978Z,14.13
2022-12-23T09:30:38.432Z,16.38
2022-12-23T09:32:40.899Z,14.00
2022-12-23T09:34:43.361Z,17.10
2022-12-23T09:36:54.872Z,15.13
2022-12-23T09:39:01.240Z,13.60
2022-12-23T09:41:09.594Z,14.05
2022-12-23T09:43:23.269Z,14.07
2022-12-23T09:45:44.962Z,12.35
2022-12-23T09:47:47.784Z,14.23
2022-12-23T09:49:55.070Z,14.60
2022-12-23T09:52:03.772Z,14.82
2022-12-23T09:54:17.392Z,16.35
2022-12-23T09:56:27.637Z,12.52
2022-12-23T09:58:38.229Z,13.82
2022-12-23T10:00:49.003Z,13.75
2022-12-23T10:03:02.461Z,13.35
2022-12-23T10:05:21.592Z,15.23
2022-12-23T10:07:35.365Z,13.68
2022-12-23T10:09:41.653Z,14.88
2022-12-23T10:11:47.220Z,14.82
2022-12-23T10:13:52.517Z,13.35
2022-12-23T10:15:58.391Z,14.68
2022-12-23T10:18:05.478Z,13.27
2022-12-23T10:20:14.995Z,13.20
2022-12-23T10:22:28.428Z,15.63
2022-12-23T10:24:40.923Z,12.77
2022-12-23T10:26:48.873Z,13.90
2022-12-23T10:28:59.136Z,14.18
2022-12-23T10:33:46.997Z,12.75
2022-12-23T10:36:01.366Z,13.02
2022-12-23T10:38:12.787Z,11.90
2022-12-23T10:40:22.827Z,11.95
2022-12-23T10:42:33.505Z,11.90
2022-12-23T10:45:04.760Z,12.85
2022-12-23T10:47:23.095Z,11.85
2022-12-23T10:49:34.562Z,12.85
2022-12-23T10:51:46.478Z,12.07
2022-12-23T10:53:55.315Z,12.30
2022-12-23T10:56:01.688Z,12.57
2022-12-23T10:58:09.319Z,14.10
2022-12-23T11:00:19.986Z,12.48
2022-12-23T11:02:38.080Z,13.20
2022-12-23T11:04:45.461Z,11.95
2022-12-23T11:07:10.617Z,12.20
2022-12-23T11:09:40.094Z,11.13
2022-12-23T11:12:01.001Z,10.70
2022-12-23T11:14:06.249Z,10.43
2022-12-23T11:16:15.229Z,10.23
2022-12-23T11:18:20.260Z,12.57
2022-12-23T11:20:22.764Z,10.85
2022-12-23T11:22:25.854Z,11.85
2022-12-23T11:24:36.582Z,10.57
2022-12-23T11:26:43.172Z,10.23
2022-12-23T11:29:08.268Z,10.75
2022-12-23T11:31:14.736Z,11.65
2022-12-23T11:33:24.268Z,11.05
2022-12-23T11:35:29.650Z,10.48
2022-12-23T11:37:37.103Z,10.50
2022-12-23T11:39:47.185Z,10.02
2022-12-23T11:41:53.081Z,10.90
2022-12-23T11:44:05.337Z,11.07
2022-12-23T11:46:15.603Z,11.27
2022-12-23T11:48:28.450Z,10.23
2022-12-23T11:50:34.633Z,12.00
2022-12-23T11:52:49.416Z,11.50
2022-12-23T11:54:57.788Z,11.13
2022-12-23T11:57:07.437Z,10.75
2022-12-23T11:59:32.641Z,11.23
2022-12-23T12:01:36.791Z,11.25
2022-12-23T12:03:46.866Z,12.00
2022-12-23T12:05:53.216Z,12.45
2022-12-23T12:08:00.266Z,11.75
2022-12-23T12:10:03.527Z,12.27
2022-12-23T12:12:13.279Z,12.33
2022-12-23T12:14:26.791Z,11.65
2022-12-23T12:16:46.679Z,11.45
2022-12-23T12:18:55.445Z,11.82
2022-12-23T12:21:04.030Z,11.85
2022-12-23T12:23:13.355Z,9.77
2022-12-23T12:25:21.405Z,10.57
2022-12-23T12:27:34.961Z,11.30
2022-12-23T12:29:46.974Z,11.25
2022-12-23T12:31:52.525Z,12.40
2022-12-23T12:34:02.455Z,11.40
2022-12-23T12:36:14.435Z,12.35
2022-12-23T12:38:34.668Z,12.07
2022-12-23T12:40:49.799Z,12.57
2022-12-23T12:42:57.650Z,11.65
2022-12-23T12:45:14.451Z,12.25
2022-12-23T12:49:53.246Z,12.27
2022-12-23T12:52:03.895Z,11.40
2022-12-23T12:54:14.439Z,12.60
2022-12-23T12:56:27.235Z,11.73
2022-12-23T12:58:32.281Z,11.00
2022-12-23T13:00:46.035Z,11.43
2022-12-23T13:03:23.382Z,12.52
2022-12-23T13:05:54.386Z,12.02
2022-12-23T13:08:13.519Z,12.32
2022-12-23T13:10:25.416Z,11.90
2022-12-23T13:12:43.498Z,11.80
2022-12-23T13:14:55.180Z,11.75
2022-12-23T13:17:07.537Z,11.48
2022-12-23T13:19:20.082Z,13.45
2022-12-23T13:21:29.080Z,13.70
2022-12-23T13:23:44.344Z,14.20
2022-12-23T13:25:54.599Z,13.80
2022-12-23T13:28:02.533Z,14.35
2022-12-23T13:30:13.284Z,14.13
2022-12-23T13:32:28.618Z,14.48
2022-12-23T13:34:41.848Z,15.30
2022-12-23T13:36:51.305Z,15.45
2022-12-23T13:39:11.399Z,14.07
2022-12-23T13:41:22.235Z,15.30
2022-12-23T13:43:39.141Z,14.93
2022-12-23T13:45:46.289Z,16.20
2022-12-23T13:48:06.662Z,16.45
2022-12-23T13:50:15.167Z,16.75
2022-12-23T13:52:24.857Z,15.85
2022-12-23T13:54:43.603Z,16.85
2022-12-23T13:56:49.910Z,14.10
2022-12-23T13:58:52.955Z,15.35
2022-12-23T14:01:18.918Z,13.73
2022-12-23T14:03:33.126Z,14.30
2022-12-23T14:05:38.159Z,14.02
2022-12-23T14:07:45.374Z,13.48
2022-12-23T14:09:52.233Z,13.95
2022-12-23T14:12:00.986Z,13.07
2022-12-23T14:14:07.285Z,13.45
2022-12-23T14:16:23.601Z,13.45
2022-12-23T14:18:48.213Z,13.20
2022-12-23T14:20:56.828Z,13.35
2022-12-23T14:23:10.343Z,15.30
2022-12-23T14:25:55.819Z,13.90
2022-12-23T14:28:07.643Z,14.55
2022-12-23T14:30:26.601Z,13.77
2022-12-23T14:32:36.176Z,15.20
2022-12-23T14:35:20.535Z,15.50
2022-12-23T14:37:36.276Z,14.98
2022-12-23T14:39:41.919Z,14.98
2022-12-23T14:41:50.730Z,14.38
2022-12-23T14:43:59.445Z,13.10
2022-12-23T14:46:06.576Z,13.95
2022-12-23T14:50:40.806Z,12.38
2022-12-23T14:52:59.754Z,11.60
2022-12-23T14:55:35.632Z,9.80
2022-12-23T14:57:38.483Z,11.30
2022-12-23T14:59:49.467Z,9.98
2022-12-23T15:01:54.104Z,9.63
2022-12-23T15:04:01.571Z,9.68
2022-12-23T15:06:15.251Z,7.78
2022-12-23T15:08:31.309Z,9.07
2022-12-23T15:10:34.178Z,10.25
2022-12-23T15:12:41.146Z,8.13
2022-12-23T15:14:47.477Z,9.10
2022-12-23T15:16:50.641Z,9.32
2022-12-23T15:18:54.922Z,9.65
2022-12-23T15:23:10.814Z,9.10
2022-12-23T15:25:21.846Z,9.02
2022-12-23T15:27:27.914Z,9.88
2022-12-23T15:29:34.137Z,10.52
2022-12-23T15:31:42.785Z,10.20
2022-12-23T15:34:04.674Z,9.73
2022-12-23T15:36:10.696Z,10.88
2022-12-23T15:38:19.851Z,10.00
2022-12-23T15:40:28.736Z,9.80
2022-12-23T15:42:32.343Z,10.73
2022-12-23T15:44:38.756Z,11.05
2022-12-23T15:46:41.763Z,11.57
2022-12-23T15:48:44.701Z,11.05
2022-12-23T15:50:47.946Z,11.25
2022-12-23T15:52:51.200Z,11.45
2022-12-23T15:54:59.889Z,11.60
2022-12-23T15:57:04.820Z,12.07
2022-12-23T15:59:21.186Z,11.63
2022-12-23T16:01:25.457Z,11.77
2022-12-23T16:03:33.979Z,12.05
2022-12-23T16:05:38.299Z,12.52
2022-12-23T16:09:44.484Z,12.98
2022-12-23T16:11:57.515Z,13.05
2022-12-23T16:14:02.345Z,12.60
2022-12-23T16:16:29.441Z,13.63
2022-12-23T16:18:34.429Z,13.02
2022-12-23T16:20:48.606Z,14.40
2022-12-23T16:22:53.131Z,12.97
2022-12-23T16:25:15.616Z,13.18
2022-12-23T16:27:31.530Z,14.45
2022-12-23T16:29:34.192Z,13.98
2022-12-23T16:31:37.753Z,14.68
2022-12-23T16:33:44.157Z,14.05
2022-12-23T16:35:46.565Z,15.70
2022-12-23T16:37:51.254Z,14.48
2022-12-23T16:39:55.676Z,13.77
2022-12-23T16:41:58.114Z,15.63
2022-12-23T16:44:04.219Z,14.75
2022-12-23T16:46:15.386Z,13.80
2022-12-23T16:48:23.059Z,13.43
2022-12-23T16:50:25.846Z,13.23
2022-12-23T16:52:28.356Z,13.93
2022-12-23T16:54:30.784Z,14.60
2022-12-23T16:56:37.476Z,14.23
2022-12-23T16:58:48.493Z,14.50
2022-12-23T17:00:53.844Z,14.65
2022-12-23T17:02:57.465Z,13.98
2022-12-23T17:05:00.814Z,13.65
2022-12-23T17:07:09.323Z,12.90
2022-12-23T17:09:12.228Z,12.68
2022-12-23T17:11:16.276Z,13.82
2022-12-23T17:13:19.241Z,13.45
2022-12-23T17:15:24.014Z,12.77
2022-12-23T17:17:29.164Z,15.60
2022-12-23T17:19:32.924Z,13.65
2022-12-23T17:21:37.308Z,13.60
2022-12-23T17:23:39.812Z,13.98
2022-12-23T17:25:42.214Z,12.82
2022-12-23T17:27:45.115Z,14.38
2022-12-23T17:29:47.873Z,12.05
2022-12-23T17:31:51.265Z,12.40
2022-12-23T17:33:56.534Z,13.38
2022-12-23T17:35:59.129Z,14.05
2022-12-23T17:38:01.558Z,13.23
2022-12-23T17:40:04.795Z,13.23
2022-12-23T17:42:07.310Z,13.02
2022-12-23T17:44:14.541Z,13.18
2022-12-23T17:46:17.038Z,12.25
2022-12-23T17:48:22.259Z,13.25
2022-12-23T17:50:33.557Z,13.38
2022-12-23T17:52:35.929Z,12.93
2022-12-23T17:54:38.429Z,12.43
2022-12-23T17:56:43.859Z,13.68
2022-12-23T17:58:48.891Z,12.90
2022-12-23T18:02:54.621Z,12.88
2022-12-23T18:04:57.267Z,12.45
2022-12-23T18:07:02.416Z,12.18
2022-12-23T18:09:04.998Z,11.35
2022-12-23T18:11:09.572Z,11.80
2022-12-23T18:13:17.065Z,12.70
2022-12-23T18:15:22.307Z,11.30
2022-12-23T18:17:24.899Z,11.10
2022-12-23T18:19:27.758Z,12.20
2022-12-23T18:21:33.159Z,11.60
2022-12-23T18:23:39.186Z,11.88
2022-12-23T18:25:41.973Z,13.02
2022-12-23T18:27:45.078Z,12.98
2022-12-23T18:29:48.716Z,12.93
2022-12-23T18:31:52.441Z,12.82
2022-12-23T18:33:55.130Z,13.25
2022-12-23T18:35:57.767Z,12.35
2022-12-23T18:38:05.730Z,12.07
2022-12-23T18:40:12.376Z,12.85
2022-12-23T18:42:20.096Z,12.80
2022-12-23T18:44:24.535Z,11.80
2022-12-23T18:46:27.240Z,11.93
2022-12-23T18:48:29.881Z,12.65
2022-12-23T18:50:32.948Z,13.45
2022-12-23T18:52:35.594Z,13.05
2022-12-23T18:54:38.311Z,13.40
2022-12-23T18:56:43.524Z,12.68
2022-12-23T18:58:46.185Z,13.48
2022-12-23T19:00:52.767Z,13.45
2022-12-23T19:02:57.351Z,13.02
2022-12-23T19:05:02.049Z,13.45
2022-12-23T19:07:04.566Z,12.75
2022-12-23T19:09:07.668Z,13.43
2022-12-23T19:11:11.744Z,13.25
2022-12-23T19:13:17.384Z,11.75
2022-12-23T19:15:23.239Z,13.02
2022-12-23T19:17:28.756Z,13.27
2022-12-23T19:19:31.680Z,12.85
2022-12-23T19:21:34.252Z,12.75
2022-12-23T19:23:37.863Z,12.63
2022-12-23T19:25:46.077Z,13.52
2022-12-23T19:27:54.935Z,12.23
2022-12-23T19:30:00.494Z,13.25
2022-12-23T19:32:03.117Z,12.30
2022-12-23T19:34:09.756Z,14.07
2022-12-23T19:36:19.591Z,13.02
2022-12-23T19:38:22.274Z,13.73
2022-12-23T19:40:24.825Z,13.77
2022-12-23T19:42:29.461Z,11.57
2022-12-23T19:44:31.936Z,12.45
2022-12-23T19:46:37.223Z,12.43
2022-12-23T19:48:40.199Z,12.15
2022-12-23T19:50:42.789Z,11.98
2022-12-23T19:52:45.301Z,12.23
2022-12-23T19:54:47.809Z,12.98
2022-12-23T19:56:54.136Z,12.13
2022-12-23T19:59:06.738Z,11.93
2022-12-23T20:01:25.882Z,12.00
2022-12-23T20:03:31.338Z,11.90
2022-12-23T20:05:33.957Z,11.73
2022-12-23T20:07:36.901Z,12.20
2022-12-23T20:09:39.557Z,12.25
2022-12-23T20:11:44.369Z,12.25
2022-12-23T20:13:54.678Z,12.45
2022-12-23T20:16:01.459Z,12.02
2022-12-23T20:18:05.562Z,11.60
2022-12-23T20:20:11.380Z,13.13
2022-12-23T20:22:14.050Z,13.00
2022-12-23T20:24:16.665Z,12.23
2022-12-23T20:26:19.988Z,12.73
2022-12-23T20:28:22.572Z,13.30
2022-12-23T20:30:27.860Z,12.85
2022-12-23T20:32:30.322Z,12.52
2022-12-23T20:34:38.665Z,13.43
2022-12-23T20:36:44.551Z,13.35
2022-12-23T20:38:47.635Z,12.73
2022-12-23T20:40:50.416Z,13.13
2022-12-23T20:42:53.001Z,12.88
2022-12-23T20:44:55.403Z,13.82
2022-12-23T20:46:57.935Z,13.18
2022-12-23T20:49:01.006Z,13.20
2022-12-23T20:51:07.544Z,13.23
2022-12-23T20:53:12.694Z,12.93
2022-12-23T20:55:15.452Z,14.13
2022-12-23T20:57:18.352Z,13.55
2022-12-23T20:59:20.946Z,13.63
2022-12-23T21:01:27.291Z,13.18
2022-12-23T21:03:29.882Z,14.88
2022-12-23T21:05:32.439Z,13.40
2022-12-23T21:07:34.887Z,12.57
2022-12-23T21:09:39.940Z,13.43
2022-12-23T21:11:44.939Z,13.80
2022-12-23T21:13:49.908Z,13.38
2022-12-23T21:16:00.949Z,13.38
2022-12-23T21:18:15.298Z,13.75
2022-12-23T21:20:17.951Z,12.68
2022-12-23T21:22:20.508Z,14.35
2022-12-23T21:24:23.824Z,14.30
2022-12-23T21:26:30.449Z,14.48
2022-12-23T21:28:37.756Z,13.15
2022-12-23T21:30:40.245Z,14.25
2022-12-23T21:32:43.065Z,13.73
2022-12-23T21:34:49.771Z,14.00
2022-12-23T21:36:52.415Z,14.90
2022-12-23T21:38:55.414Z,13.18
2022-12-23T21:41:06.530Z,13.05
2022-12-23T21:43:14.673Z,13.63
2022-12-23T21:45:17.380Z,13.00
2022-12-23T21:47:19.935Z,14.65
2022-12-23T21:49:22.741Z,12.55
2022-12-23T21:51:38.552Z,13.68
2022-12-23T21:53:43.762Z,13.05
2022-12-23T21:55:46.845Z,13.50
2022-12-23T21:57:49.390Z,14.27
2022-12-23T21:59:54.802Z,13.15
2022-12-23T22:01:58.354Z,12.40
2022-12-23T22:04:06.109Z,13.85
2022-12-23T22:06:11.008Z,12.77
2022-12-23T22:08:13.447Z,12.68
2022-12-23T22:10:16.201Z,12.43
2022-12-23T22:12:18.885Z,12.50
2022-12-23T22:14:21.428Z,12.25
2022-12-23T22:16:28.970Z,12.75
2022-12-23T22:18:31.656Z,12.40
2022-12-23T22:20:39.753Z,13.15
2022-12-23T22:22:45.627Z,12.75
2022-12-23T22:24:48.035Z,11.93
2022-12-23T22:26:50.558Z,12.68
2022-12-23T22:28:56.658Z,13.30
2022-12-23T22:31:02.613Z,12.43
2022-12-23T22:33:08.113Z,12.73
2022-12-23T22:35:10.843Z,12.50
2022-12-23T22:37:13.487Z,13.20
2022-12-23T22:39:30.449Z,13.38
2022-12-23T22:41:33.112Z,11.63
2022-12-23T22:43:35.671Z,11.95
2022-12-23T22:45:42.456Z,11.55
2022-12-23T22:47:47.972Z,12.73
2022-12-23T22:49:58.167Z,12.02
2022-12-23T22:52:00.734Z,13.07
2022-12-23T22:54:03.680Z,13.75
2022-12-23T22:56:07.552Z,12.27
2022-12-23T22:58:09.990Z,12.48
2022-12-23T23:00:15.913Z,12.45
2022-12-23T23:02:20.276Z,12.10
2022-12-23T23:04:23.301Z,12.35
2022-12-23T23:06:30.687Z,12.20
2022-12-23T23:08:34.580Z,12.43
2022-12-23T23:10:38.074Z,12.80
2022-12-23T23:12:40.887Z,12.03
2022-12-23T23:14:55.530Z,12.57
2022-12-23T23:17:04.040Z,12.70
2022-12-23T23:19:09.193Z,12.82
2022-12-23T23:21:13.717Z,12.13
2022-12-23T23:23:19.318Z,12.95
2022-12-23T23:25:23.642Z,12.48
2022-12-23T23:27:26.332Z,12.98
2022-12-23T23:29:28.914Z,13.27
2022-12-23T23:31:41.960Z,10.93
2022-12-23T23:33:47.845Z,11.57
2022-12-23T23:35:54.940Z,11.38
2022-12-23T23:37:57.424Z,12.48
2022-12-23T23:40:02.940Z,11.55
2022-12-23T23:42:05.845Z,12.73
2022-12-23T23:44:09.007Z,12.80
2022-12-23T23:46:14.346Z,13.57
2022-12-23T23:48:17.031Z,13.35
2022-12-23T23:50:21.274Z,13.27
2022-12-23T23:52:24.014Z,13.00
2022-12-23T23:54:26.595Z,12.30
2022-12-23T23:56:37.847Z,12.73
2022-12-23T23:58:43.582Z,12.95
